Portada
METAR-TAF:

METAR-TAF

Aeroports :

Aeroport Internacional de Hong Kong

Hong Kong, Xina

latitud: 22-19N, longitud: 113-55E, altitud: 9 m

Observació

L'informe es va fer fa 18 minuts, a les 14:00 UTC
Vent 12 kt del Est
Temperatura 20°C
Humitat 53%
Pressió 1023 hPa
Visibilitat 10 km o més
sense núvols per sota de 1500 mi sense presència de cumulonimbus.

METAR: VHHH 231400Z 09012KT CAVOK 20/10 Q1023 NOSIG

Hora: 22:18 (14:18 UTC)

Pronòstic

L'informe es va fer fa 3 hores i 18 minuts, a les 11:00 UTC
Pronòstic vàlid del 23 a les 12 UTC al 24 a les 18 UTC
Vent 10 kt del Est
Visibilitat 10 km o més
Escasses núvols a una alçada de 3000 ft

TAF: VHHH 231100Z 2312/2418 09010KT 9999 FEW030 TX25/2406Z TN18/2323Z

Observacions i pronòstics meteorològics de més de 4000 aeroports (METAR i TAF).

Les estacions disponibles són els punts grocs i vermells al mapa.

Posi el ratolí al punt desitjat per veure el nom de l'estació.

Feu clic per veure les observacions i els pronòstics meteorològics.

Per canviar el mapa: feu clic els botons verds amb una creu de color negre per apropar; al botó verd amb un guió per allunyar la imatge; o en les fletxes verdes per a mapes adjacents.


METAR-TAF: